Surface observations / Quebec / CYHU (71371)

Quebec | Canada | USA | France | UK | Europe | Elsewhere

Display: Info & Location for CYHU (71371) | Help decoding METAR

CYHU MONTREAL/ST HUBERT A QB CN
Raw surface observations for station CYHU
CYHU 252000Z AUTO 28011KT 9SM BKN090 24/12 A2993 RMK SLP136 DENSITY ALT 1100FT=
CYHU 251900Z AUTO 23011KT 9SM SCT110 BKN130 24/12 A2993 RMK SLP136 DENSITY ALT 1100FT=
CYHU 251800Z AUTO 24009KT 9SM OVC110 23/13 A2992 RMK SLP134 DENSITY ALT 1000FT=
CYHU 251732Z AUTO 23008KT 9SM BKN100 22/12 A2991 RMK SLP132 DENSITY ALT 800FT=
CYHU 251718Z AUTO 23007KT 9SM -RA FEW055 OVC100 21/12 A2991 RMK SLP132 DENSITY ALT 800FT=
CYHU 251713Z AUTO 24008KT 9SM BKN100 22/11 A2991 RMK SLP131 DENSITY ALT 800FT=
CYHU 251700Z AUTO 25009KT 9SM -RA FEW046 BKN100 BKN120 21/12 A2991 RMK SLP132 DENSITY ALT 800FT=
CYHU 251654Z AUTO 23008KT 9SM -RA BKN100 BKN120 22/12 A2991 RMK SLP130 DENSITY ALT 900FT=
CYHU 251600Z AUTO 28007G15KT 9SM BKN120 23/10 A2992 RMK SLP133 DENSITY ALT 900FT=
CYHU 251500Z AUTO 22009G16KT 9SM BKN140 BKN160 22/10 A2991 RMK SLP132 DENSITY ALT 900FT=
CYHU 251400Z AUTO 24012G22KT 9SM BKN160 20/09 A2991 RMK SLP132 DENSITY ALT 600FT=
CYHU 251300Z AUTO 23016KT 9SM BKN160 BKN180 20/09 A2990 RMK SLP126 DENSITY ALT 700FT=
CYHU 251200Z AUTO 23012G17KT 9SM CLR 19/08 A2989 RMK SLP124 DENSITY ALT 500FT=
CYHU 251100Z AUTO 21007KT 9SM CLR 16/09 A2989 RMK SLP122 DENSITY ALT 200FT=
CYHU 251000Z AUTO 20007KT 9SM CLR 14/09 A2987 RMK SLP117=
CYHU 250900Z AUTO 19007KT 9SM CLR 14/08 A2986 RMK SLP113=
CYHU 250800Z AUTO 20006KT 9SM CLR 14/10 A2986 RMK SLP111=
CYHU 250700Z AUTO 19007KT 9SM CLR 14/11 A2985 RMK SLP110 DENSITY ALT 100FT=
CYHU 250600Z AUTO 18006KT 9SM CLR 15/09 A2985 RMK SLP109 DENSITY ALT 100FT=
CYHU 250500Z AUTO 20008KT 9SM CLR 17/09 A2985 RMK SLP108 DENSITY ALT 400FT=
CYHU 250400Z AUTO 18007KT 9SM CLR 17/11 A2985 RMK SLP108 DENSITY ALT 400FT=
CYHU 250300Z AUTO 17006KT 9SM CLR 18/11 A2985 RMK SLP108 DENSITY ALT 500FT=
CYHU 250200Z AUTO 18008KT 9SM CLR 20/10 A2984 RMK SLP107 DENSITY ALT 700FT=
CYHU 250110Z AUTO 16011KT 9SM CLR 21/09 A2983 RMK WSHFT AT 0100Z SLP102 DENSITY ALT 900FT=
CYHU 250100Z AUTO 21004KT 9SM CLR 24/02 A2983 RMK SLP101 DENSITY ALT 1200FT=
CYHU 250000Z AUTO 25005KT 9SM CLR 25/02 A2982 RMK SLP098 DENSITY ALT 1300FT=
CYHU 242300Z AUTO 24009KT 9SM CLR 27/02 A2982 RMK SLP099 DENSITY ALT 1500FT=
CYHU 242200Z AUTO 28006KT 9SM CLR 28/03 A2981 RMK SLP098 DENSITY ALT 1700FT=
CYHU 242100Z AUTO 25004KT 190V280 9SM CLR 29/01 A2982 RMK SLP098 DENSITY ALT 1800FT=
CYHU 242017Z AUTO 22011KT 9SM CLR 29/05 A2982 RMK WSHFT AT 2005Z SLP101 DENSITY ALT 1800FT=
CYHU 242000Z AUTO 35004KT 300V110 9SM CLR 29/01 A2983 RMK SLP102 DENSITY ALT 1800FT=